createdAt,value
2016-03-05T00:00:27.144Z,86.82
2016-03-05T00:01:27.147Z,86.82
2016-03-05T00:02:27.134Z,86.35
2016-03-05T00:03:27.137Z,86.82
2016-03-05T00:04:27.139Z,87.49
2016-03-05T00:05:27.142Z,87.77
2016-03-05T00:06:27.129Z,87.3
2016-03-05T00:07:27.148Z,87.01
2016-03-05T00:08:27.134Z,86.54
2016-03-05T00:09:27.137Z,86.72
2016-03-05T00:10:27.123Z,86.91
2016-03-05T00:11:27.126Z,86.63
2016-03-05T00:12:27.114Z,86.72
2016-03-05T00:13:27.117Z,86.25
2016-03-05T00:14:27.120Z,86.25
2016-03-05T00:15:27.122Z,85.78
2016-03-05T00:16:27.109Z,85.78
2016-03-05T00:17:27.127Z,85.02
2016-03-05T00:18:27.115Z,85.21
2016-03-05T00:19:27.148Z,85.02
2016-03-05T00:20:27.103Z,85.21
2016-03-05T00:21:27.100Z,85.49
2016-03-05T00:22:27.076Z,84.74
2016-03-05T00:23:27.067Z,84.83
2016-03-05T00:24:27.058Z,84.83
2016-03-05T00:25:27.049Z,85.02
2016-03-05T00:26:27.029Z,85.02
2016-03-05T00:27:27.027Z,85.11
2016-03-05T00:28:27.029Z,84.07
2016-03-05T00:29:27.032Z,83.69
2016-03-05T00:30:27.022Z,83.88
2016-03-05T00:31:27.037Z,84.07
2016-03-05T00:32:27.008Z,84.45
2016-03-05T00:33:27.008Z,84.17
2016-03-05T00:34:27.011Z,83.88
2016-03-05T00:35:26.996Z,83.97
2016-03-05T00:36:26.997Z,83.78
2016-03-05T00:37:26.999Z,83.88
2016-03-05T00:38:27.001Z,84.55
2016-03-05T00:39:27.002Z,84.26
2016-03-05T00:40:26.973Z,83.5
2016-03-05T00:41:26.975Z,84.17
2016-03-05T00:42:26.979Z,84.07
2016-03-05T00:43:26.966Z,84.36
2016-03-05T00:44:26.968Z,84.55
2016-03-05T00:45:26.955Z,84.64
2016-03-05T00:46:26.957Z,84.92
2016-03-05T00:47:26.960Z,85.49
2016-03-05T00:48:26.962Z,85.11
2016-03-05T00:49:26.951Z,85.02
2016-03-05T00:50:26.953Z,85.21
2016-03-05T00:51:26.940Z,84.92
2016-03-05T00:52:26.942Z,85.59
2016-03-05T00:53:26.945Z,84.92
2016-03-05T00:54:26.947Z,84.55
2016-03-05T00:55:26.951Z,84.36
2016-03-05T00:56:26.954Z,84.36
2016-03-05T00:57:26.941Z,84.26
2016-03-05T00:58:26.928Z,84.26
2016-03-05T00:59:26.930Z,84.17
2016-03-05T01:00:26.933Z,83.78
2016-03-05T01:01:26.919Z,84.17
2016-03-05T01:02:26.938Z,83.4
2016-03-05T01:03:26.926Z,83.59
2016-03-05T01:04:26.928Z,82.84
2016-03-05T01:05:26.916Z,83.31
2016-03-05T01:06:26.918Z,82.46
2016-03-05T01:07:26.921Z,82.93
2016-03-05T01:08:26.923Z,83.22
2016-03-05T01:09:26.911Z,82.74
2016-03-05T01:10:26.913Z,82.69
2016-03-05T01:11:26.900Z,83.12
2016-03-05T01:12:26.918Z,82.84
2016-03-05T01:13:26.905Z,83.4
2016-03-05T01:14:26.907Z,84.26
2016-03-05T01:15:26.926Z,84.45
2016-03-05T01:16:26.898Z,84.74
2016-03-05T01:17:26.885Z,85.02
2016-03-05T01:18:26.888Z,84.92
2016-03-05T01:19:26.890Z,84.74
2016-03-05T01:20:26.893Z,85.21
2016-03-05T01:21:26.880Z,85.02
2016-03-05T01:22:26.883Z,85.3
2016-03-05T01:23:26.885Z,85.21
2016-03-05T01:24:26.889Z,85.11
2016-03-05T01:25:26.876Z,85.21
2016-03-05T01:26:26.878Z,84.83
2016-03-05T01:27:26.864Z,85.68
2016-03-05T01:28:26.883Z,85.59
2016-03-05T01:29:26.870Z,85.78
2016-03-05T01:30:26.873Z,86.63
2016-03-05T01:31:26.875Z,86.63
2016-03-05T01:32:26.878Z,86.72
2016-03-05T01:33:26.866Z,86.63
2016-03-05T01:34:26.869Z,86.91
2016-03-05T01:35:26.871Z,86.91
2016-03-05T01:36:26.857Z,86.91
2016-03-05T01:37:26.860Z,86.63
2016-03-05T01:38:26.848Z,86.91
2016-03-05T01:39:26.850Z,86.54
2016-03-05T01:40:26.853Z,87.01
2016-03-05T01:41:26.840Z,86.82
2016-03-05T01:42:26.843Z,86.82
2016-03-05T01:43:26.845Z,86.44
2016-03-05T01:44:26.848Z,86.16
2016-03-05T01:45:26.835Z,86.72
2016-03-05T01:46:26.838Z,86.25
2016-03-05T01:47:26.826Z,86.91
2016-03-05T01:48:26.828Z,86.54
2016-03-05T01:49:26.831Z,85.78
2016-03-05T01:50:26.833Z,85.97
2016-03-05T01:51:26.820Z,85.21
2016-03-05T01:52:26.838Z,85.02
2016-03-05T01:53:26.826Z,85.4
2016-03-05T01:54:26.829Z,85.59
2016-03-05T01:55:26.815Z,85.87
2016-03-05T01:56:26.817Z,86.16
2016-03-05T01:57:26.805Z,85.59
2016-03-05T01:58:26.808Z,85.68
2016-03-05T01:59:26.811Z,85.02
2016-03-05T02:00:26.813Z,85.11
2016-03-05T02:01:26.817Z,85.11
2016-03-05T02:02:26.819Z,85.3
2016-03-05T02:03:26.805Z,85.11
2016-03-05T02:04:26.792Z,85.21
2016-03-05T02:05:26.794Z,84.83
2016-03-05T02:06:26.798Z,85.11
2016-03-05T02:07:26.801Z,85.21
2016-03-05T02:08:26.788Z,85.87
2016-03-05T02:09:26.806Z,86.07
2016-03-05T02:10:26.777Z,86.16
2016-03-05T02:11:26.796Z,85.78
2016-03-05T02:12:26.782Z,85.78
2016-03-05T02:13:26.785Z,85.97
2016-03-05T02:14:26.774Z,85.97
2016-03-05T02:15:26.776Z,85.78
2016-03-05T02:16:26.779Z,86.07
2016-03-05T02:17:26.769Z,86.35
2016-03-05T02:18:26.772Z,86.25
2016-03-05T02:19:26.758Z,86.35
2016-03-05T02:20:26.761Z,85.68
2016-03-05T02:21:26.763Z,85.4
2016-03-05T02:22:26.766Z,85.49
2016-03-05T02:23:26.770Z,85.02
2016-03-05T02:24:26.788Z,85.21
2016-03-05T02:25:26.619Z,86.16
2016-03-05T02:26:26.762Z,85.78
2016-03-05T02:27:26.765Z,85.68
2016-03-05T02:28:26.751Z,85.78
2016-03-05T02:29:26.754Z,86.25
2016-03-05T02:30:26.757Z,86.54
2016-03-05T02:31:26.744Z,86.25
2016-03-05T02:32:26.746Z,86.91
2016-03-05T02:33:26.734Z,86.44
2016-03-05T02:34:26.752Z,86.82
2016-03-05T02:35:26.740Z,86.63
2016-03-05T02:36:26.742Z,87.11
2016-03-05T02:37:26.729Z,87.3
2016-03-05T02:38:26.748Z,87.49
2016-03-05T02:39:26.719Z,86.91
2016-03-05T02:40:26.737Z,85.97
2016-03-05T02:41:26.724Z,86.35
2016-03-05T02:42:26.727Z,86.16
2016-03-05T02:43:26.714Z,86.35
2016-03-05T02:44:26.717Z,86.44
2016-03-05T02:45:26.704Z,86.54
2016-03-05T02:46:26.706Z,86.25
2016-03-05T02:47:26.709Z,86.44
2016-03-05T02:48:26.711Z,86.63
2016-03-05T02:49:26.714Z,86.91
2016-03-05T02:50:26.701Z,86.91
2016-03-05T02:51:26.689Z,86.54
2016-03-05T02:52:26.692Z,86.91
2016-03-05T02:53:26.694Z,86.82
2016-03-05T02:54:26.681Z,86.91
2016-03-05T02:55:26.699Z,87.11
2016-03-05T02:56:26.686Z,86.82
2016-03-05T02:57:26.688Z,86.72
2016-03-05T02:58:26.691Z,86.91
2016-03-05T02:59:26.694Z,86.72
2016-03-05T03:00:26.682Z,86.72
2016-03-05T03:01:26.684Z,86.63
2016-03-05T03:02:26.671Z,86.44
2016-03-05T03:03:26.673Z,86.44
2016-03-05T03:04:26.661Z,86.63
2016-03-05T03:05:26.664Z,87.01
2016-03-05T03:06:26.681Z,86.44
2016-03-05T03:07:26.513Z,85.97
2016-03-05T03:08:26.672Z,86.07
2016-03-05T03:09:26.659Z,86.35
2016-03-05T03:10:26.661Z,86.16
2016-03-05T03:11:26.648Z,86.35
2016-03-05T03:12:26.651Z,86.54
2016-03-05T03:13:26.654Z,86.35
2016-03-05T03:14:26.657Z,86.35
2016-03-05T03:15:26.644Z,86.35
2016-03-05T03:16:26.662Z,86.44
2016-03-05T03:17:26.649Z,86.63
2016-03-05T03:18:26.652Z,87.01
2016-03-05T03:19:26.638Z,87.01
2016-03-05T03:20:26.642Z,86.72
2016-03-05T03:21:26.645Z,86.91
2016-03-05T03:22:26.631Z,87.49
2016-03-05T03:23:26.634Z,87.3
2016-03-05T03:24:26.636Z,88.06
2016-03-05T03:25:26.639Z,88.15
2016-03-05T03:26:26.641Z,87.87
2016-03-05T03:27:26.644Z,88.24
2016-03-05T03:28:26.647Z,87.68
2016-03-05T03:29:26.635Z,87.39
2016-03-05T03:30:26.653Z,87.3
2016-03-05T03:31:26.640Z,87.45
2016-03-05T03:32:26.627Z,87.3
2016-03-05T03:33:26.614Z,87.49
2016-03-05T03:34:26.632Z,87.39
2016-03-05T03:35:26.620Z,87.39
2016-03-05T03:36:26.607Z,87.3
2016-03-05T03:37:26.609Z,87.49
2016-03-05T03:38:26.612Z,87.77
2016-03-05T03:39:26.614Z,87.39
2016-03-05T03:40:26.617Z,87.68
2016-03-05T03:41:26.620Z,86.72
2016-03-05T03:42:26.623Z,86.82
2016-03-05T03:43:26.610Z,86.82
2016-03-05T03:44:26.613Z,86.82
2016-03-05T03:45:26.615Z,86.91
2016-03-05T03:46:26.617Z,86.54
2016-03-05T03:47:26.589Z,86.25
2016-03-05T03:48:26.592Z,86.16
2016-03-05T03:49:26.594Z,86.16
2016-03-05T03:50:26.582Z,86.44
2016-03-05T03:51:26.600Z,86.35
2016-03-05T03:52:26.587Z,85.97
2016-03-05T03:53:26.589Z,86.35
2016-03-05T03:54:26.577Z,86.54
2016-03-05T03:55:26.594Z,86.63
2016-03-05T03:56:26.597Z,86.63
2016-03-05T03:57:26.569Z,86.82
2016-03-05T03:58:26.572Z,87.68
2016-03-05T03:59:26.575Z,87.3
2016-03-05T04:00:26.562Z,87.2
2016-03-05T04:01:26.565Z,86.82
2016-03-05T04:02:26.582Z,87.39
2016-03-05T04:03:26.570Z,87.68
2016-03-05T04:04:26.587Z,87.77
2016-03-05T04:05:26.576Z,87.58
2016-03-05T04:06:26.579Z,87.3
2016-03-05T04:07:26.581Z,87.39
2016-03-05T04:08:26.568Z,87.3
2016-03-05T04:09:26.586Z,87.39
2016-03-05T04:10:26.542Z,87.87
2016-03-05T04:11:26.545Z,87.49
2016-03-05T04:12:26.548Z,88.06
2016-03-05T04:13:26.551Z,87.87
2016-03-05T04:14:26.553Z,87.87
2016-03-05T04:15:26.556Z,87.77
2016-03-05T04:16:26.542Z,88.15
2016-03-05T04:17:26.544Z,87.49
2016-03-05T04:18:26.547Z,87.39
2016-03-05T04:19:26.551Z,87.39
2016-03-05T04:20:26.537Z,87.49
2016-03-05T04:21:26.540Z,87.58
2016-03-05T04:22:26.528Z,87.49
2016-03-05T04:23:26.530Z,87.49
2016-03-05T04:24:26.532Z,86.54
2016-03-05T04:25:26.519Z,86.63
2016-03-05T04:26:26.508Z,86.54
2016-03-05T04:27:26.525Z,87.01
2016-03-05T04:28:26.513Z,86.82
2016-03-05T04:29:26.515Z,87.01
2016-03-05T04:30:26.502Z,86.82
2016-03-05T04:31:26.504Z,86.72
2016-03-05T04:32:26.507Z,86.63
2016-03-05T04:33:26.509Z,86.54
2016-03-05T04:34:26.497Z,86.82
2016-03-05T04:35:26.500Z,86.91
2016-03-05T04:36:26.502Z,87.01
2016-03-05T04:37:26.490Z,86.91
2016-03-05T04:38:26.507Z,86.54
2016-03-05T04:39:26.495Z,86.72
2016-03-05T04:40:26.497Z,86.82
2016-03-05T04:41:26.500Z,86.63
2016-03-05T04:42:26.488Z,87.01
2016-03-05T04:43:26.474Z,86.72
2016-03-05T04:44:26.493Z,86.63
2016-03-05T04:45:26.479Z,87.01
2016-03-05T04:46:26.466Z,86.82
2016-03-05T04:47:26.469Z,86.91
2016-03-05T04:48:26.488Z,86.82
2016-03-05T04:49:26.475Z,86.72
2016-03-05T04:50:26.462Z,86.63
2016-03-05T04:51:26.464Z,86.54
2016-03-05T04:52:26.467Z,86.91
2016-03-05T04:53:26.469Z,86.72
2016-03-05T04:54:26.457Z,86.72
2016-03-05T04:55:26.475Z,87.39
2016-03-05T04:56:26.463Z,87.39
2016-03-05T04:57:26.466Z,87.3
2016-03-05T04:58:26.453Z,87.01
2016-03-05T04:59:26.455Z,87.49
2016-03-05T05:00:26.457Z,87.49
2016-03-05T05:01:26.444Z,87.39
2016-03-05T05:02:26.447Z,87.49
2016-03-05T05:03:26.466Z,87.39
2016-03-05T05:04:26.453Z,87.01
2016-03-05T05:05:26.440Z,86.82
2016-03-05T05:06:26.459Z,86.82
2016-03-05T05:07:26.446Z,86.82
2016-03-05T05:08:26.449Z,86.82
2016-03-05T05:09:26.435Z,87.2
2016-03-05T05:10:26.423Z,87.01
2016-03-05T05:11:26.426Z,87.49
2016-03-05T05:12:26.428Z,87.58
2016-03-05T05:13:26.431Z,88.15
2016-03-05T05:14:26.418Z,87.49
2016-03-05T05:15:26.436Z,87.3
2016-03-05T05:16:26.423Z,87.63
2016-03-05T05:17:26.426Z,87.77
2016-03-05T05:18:26.429Z,87.54
2016-03-05T05:19:26.432Z,87.49
2016-03-05T05:20:26.435Z,87.68
2016-03-05T05:21:26.421Z,88.2
2016-03-05T05:22:26.408Z,87.82
2016-03-05T05:23:26.410Z,87.82
2016-03-05T05:24:26.413Z,87.92
2016-03-05T05:25:26.415Z,88.01
2016-03-05T05:26:26.419Z,88.1
2016-03-05T05:27:26.407Z,88.01
2016-03-05T05:28:26.393Z,87.63
2016-03-05T05:29:26.396Z,87.25
2016-03-05T05:30:26.398Z,87.73
2016-03-05T05:31:26.401Z,87.92
2016-03-05T05:32:26.389Z,87.54
2016-03-05T05:33:26.391Z,87.63
2016-03-05T05:34:26.394Z,87.25
2016-03-05T05:35:26.380Z,87.63
2016-03-05T05:36:26.384Z,87.73
2016-03-05T05:37:26.386Z,87.82
2016-03-05T05:38:26.388Z,87.35
2016-03-05T05:39:26.375Z,87.82
2016-03-05T05:40:26.378Z,87.73
2016-03-05T05:41:26.381Z,87.82
2016-03-05T05:42:26.369Z,88.29
2016-03-05T05:43:26.371Z,88.1
2016-03-05T05:44:26.374Z,88.2
2016-03-05T05:45:26.361Z,87.92
2016-03-05T05:46:26.347Z,87.63
2016-03-05T05:47:26.366Z,88.1
2016-03-05T05:48:26.352Z,88.01
2016-03-05T05:49:26.356Z,88.01
2016-03-05T05:50:26.343Z,87.82
2016-03-05T05:51:26.346Z,87.63
2016-03-05T05:52:26.348Z,88.1
2016-03-05T05:53:26.335Z,87.63
2016-03-05T05:54:26.337Z,87.63
2016-03-05T05:55:26.357Z,87.73
2016-03-05T05:56:26.329Z,87.92
2016-03-05T05:57:26.331Z,88.48
2016-03-05T05:58:26.318Z,88.39
2016-03-05T05:59:26.336Z,88.58
2016-03-05T06:00:26.323Z,88.39
2016-03-05T06:01:26.310Z,88.01
2016-03-05T06:02:26.328Z,88.39
2016-03-05T06:03:26.316Z,88.39
2016-03-05T06:04:26.303Z,88.48
2016-03-05T06:05:26.306Z,88.29
2016-03-05T06:06:26.308Z,87.82
2016-03-05T06:07:26.342Z,88.2
2016-03-05T06:08:26.314Z,88.1
2016-03-05T06:09:26.316Z,87.54
2016-03-05T06:10:26.303Z,87.82
2016-03-05T06:11:26.306Z,88.01
2016-03-05T06:12:26.293Z,87.25
2016-03-05T06:13:26.295Z,87.82
2016-03-05T06:14:26.673Z,87.25
2016-03-05T06:15:26.363Z,87.16
2016-03-05T06:16:26.288Z,87.25
2016-03-05T06:17:26.290Z,87.54
2016-03-05T06:18:26.293Z,87.68
2016-03-05T06:19:26.281Z,87.58
2016-03-05T06:20:26.268Z,87.01
2016-03-05T06:21:26.286Z,87.58
2016-03-05T06:22:26.288Z,86.72
2016-03-05T06:23:26.275Z,86.91
2016-03-05T06:24:26.262Z,87.58
2016-03-05T06:25:26.265Z,87.68
2016-03-05T06:26:26.268Z,87.49
2016-03-05T06:27:26.255Z,87.11
2016-03-05T06:28:26.258Z,87.39
2016-03-05T06:29:26.276Z,87.68
2016-03-05T06:30:26.262Z,86.82
2016-03-05T06:31:26.250Z,86.97
2016-03-05T06:32:26.254Z,86.63
2016-03-05T06:33:26.240Z,87.3
2016-03-05T06:34:26.258Z,86.63
2016-03-05T06:35:26.246Z,86.91
2016-03-05T06:36:26.232Z,86.91
2016-03-05T06:37:26.234Z,86.91
2016-03-05T06:38:26.237Z,86.91
2016-03-05T06:39:26.225Z,86.91
2016-03-05T06:40:26.243Z,86.07
2016-03-05T06:41:26.231Z,85.68
2016-03-05T06:42:26.233Z,86.16
2016-03-05T06:43:26.251Z,85.97
2016-03-05T06:44:26.238Z,85.02
2016-03-05T06:45:26.225Z,85.3
2016-03-05T06:46:26.212Z,85.11
2016-03-05T06:47:26.215Z,85.11
2016-03-05T06:48:26.219Z,84.64
2016-03-05T06:49:26.221Z,84.36
2016-03-05T06:50:26.208Z,84.45
2016-03-05T06:51:26.226Z,84.26
2016-03-05T06:52:26.213Z,84.07
2016-03-05T06:53:26.199Z,84.74
2016-03-05T06:54:26.202Z,84.26
2016-03-05T06:55:26.205Z,83.54
2016-03-05T06:56:26.208Z,83.54
2016-03-05T06:57:26.196Z,83.59
2016-03-05T06:58:26.213Z,83.69
2016-03-05T06:59:26.201Z,83.54
2016-03-05T07:00:26.265Z,82.93
2016-03-05T07:01:26.268Z,83.59
2016-03-05T07:02:26.193Z,83.5
2016-03-05T07:03:26.195Z,84.07
2016-03-05T07:04:26.199Z,84.26
2016-03-05T07:05:26.232Z,83.73
2016-03-05T07:06:26.188Z,83.26
2016-03-05T07:07:26.190Z,83.26
2016-03-05T07:08:26.193Z,83.36
2016-03-05T07:09:26.180Z,83.4
2016-03-05T07:10:26.183Z,83.54
2016-03-05T07:11:26.170Z,82.84
2016-03-05T07:12:26.173Z,83.22
2016-03-05T07:13:26.175Z,83.07
2016-03-05T07:14:26.209Z,83.26
2016-03-05T07:15:26.165Z,82.88
2016-03-05T07:16:26.168Z,82.69
2016-03-05T07:17:26.171Z,83.16
2016-03-05T07:18:26.174Z,83.07
2016-03-05T07:19:26.161Z,83.16
2016-03-05T07:20:26.164Z,82.4
2016-03-05T07:21:26.182Z,82.59
2016-03-05T07:22:26.168Z,82.21
2016-03-05T07:23:26.171Z,82.4
2016-03-05T07:24:26.158Z,82.69
2016-03-05T07:25:26.177Z,82.78
2016-03-05T07:26:26.163Z,82.12
2016-03-05T07:27:26.166Z,82.21
2016-03-05T07:28:26.154Z,82.59
2016-03-05T07:29:26.157Z,82.59
2016-03-05T07:30:26.174Z,82.4
2016-03-05T07:31:26.162Z,82.03
2016-03-05T07:32:26.164Z,82.21
2016-03-05T07:33:26.152Z,82.12
2016-03-05T07:34:26.138Z,82.59
2016-03-05T07:35:26.140Z,82.31
2016-03-05T07:36:26.143Z,81.36
2016-03-05T07:37:26.146Z,81.07
2016-03-05T07:38:26.148Z,81.84
2016-03-05T07:39:26.151Z,80.98
2016-03-05T07:40:26.139Z,81.26
2016-03-05T07:41:26.157Z,81.17
2016-03-05T07:42:26.145Z,81.07
2016-03-05T07:43:26.162Z,81.17
2016-03-05T07:44:26.134Z,80.98
2016-03-05T07:45:26.136Z,81.17
2016-03-05T07:46:26.139Z,81.26
2016-03-05T07:47:26.158Z,81.26
2016-03-05T07:48:26.144Z,80.32
2016-03-05T07:49:26.133Z,80.51
2016-03-05T07:50:26.150Z,80.69
2016-03-05T07:51:26.138Z,80.41
2016-03-05T07:52:26.140Z,79.94
2016-03-05T07:53:26.158Z,80.13
2016-03-05T07:54:26.146Z,80.6
2016-03-05T07:55:26.116Z,80.6
2016-03-05T07:56:26.135Z,80.41
2016-03-05T07:57:26.122Z,80.03
2016-03-05T07:58:26.110Z,80.03
2016-03-05T07:59:26.112Z,80.07
2016-03-05T08:00:26.130Z,79.6
2016-03-05T08:01:26.117Z,79.31
2016-03-05T08:02:26.136Z,79.6
2016-03-05T08:03:26.123Z,79.79
2016-03-05T08:04:26.126Z,79.03
2016-03-05T08:05:26.144Z,78.83
2016-03-05T08:06:26.116Z,78.83
2016-03-05T08:07:26.102Z,78.36
2016-03-05T08:08:26.105Z,77.7
2016-03-05T08:09:26.124Z,77.7
2016-03-05T08:10:26.111Z,76.93
2016-03-05T08:11:26.113Z,77.03
2016-03-05T08:12:26.116Z,77.41
2016-03-05T08:13:26.119Z,76.93
2016-03-05T08:14:26.121Z,77.51
2016-03-05T08:15:26.109Z,77.41
2016-03-05T08:16:26.112Z,77.41
2016-03-05T08:17:26.099Z,77.6
2016-03-05T08:18:26.118Z,77.79
2016-03-05T08:19:26.104Z,77.51
2016-03-05T08:20:26.106Z,78.27
2016-03-05T08:21:26.109Z,77.51
2016-03-05T08:22:26.112Z,77.03
2016-03-05T08:23:26.115Z,77.03
2016-03-05T08:24:26.118Z,76.84
2016-03-05T08:25:26.105Z,77.03
2016-03-05T08:26:26.108Z,77.41
2016-03-05T08:27:26.126Z,77.41
2016-03-05T08:28:26.113Z,77.22
2016-03-05T08:29:26.100Z,77.41
2016-03-05T08:30:26.102Z,77.22
2016-03-05T08:31:26.121Z,76.84
2016-03-05T08:32:26.108Z,76.93
2016-03-05T08:33:26.110Z,76.93
2016-03-05T08:34:26.098Z,76.18
2016-03-05T08:35:26.100Z,76.18
2016-03-05T08:36:26.103Z,75.6
2016-03-05T08:37:26.105Z,75.32
2016-03-05T08:38:26.108Z,75.45
2016-03-05T08:39:26.111Z,75.07
2016-03-05T08:40:26.098Z,75.26
2016-03-05T08:41:26.101Z,75.17
2016-03-05T08:42:26.119Z,75.26
2016-03-05T08:43:26.091Z,74.41
2016-03-05T08:44:26.109Z,74.12
2016-03-05T08:45:26.096Z,74.88
2016-03-05T08:46:26.115Z,75.07
2016-03-05T08:47:26.117Z,74.88
2016-03-05T08:48:26.104Z,74.41
2016-03-05T08:49:26.106Z,74.22
2016-03-05T08:50:26.094Z,74.6
2016-03-05T08:51:26.096Z,73.74
2016-03-05T08:52:26.099Z,73.93
2016-03-05T08:53:26.101Z,73.46
2016-03-05T08:54:26.104Z,73.18
2016-03-05T08:55:26.107Z,73.65
2016-03-05T08:56:26.109Z,73.18
2016-03-05T08:57:26.112Z,72.89
2016-03-05T08:58:26.100Z,73.93
2016-03-05T08:59:26.134Z,73.74
2016-03-05T09:00:26.105Z,73.74
2016-03-05T09:01:26.108Z,74.22
2016-03-05T09:02:26.111Z,73.84
2016-03-05T09:03:26.114Z,73.93
2016-03-05T09:04:26.100Z,73.65
2016-03-05T09:05:26.118Z,73.93
2016-03-05T09:06:26.105Z,74.12
2016-03-05T09:07:26.108Z,73.93
2016-03-05T09:08:26.111Z,74.31
2016-03-05T09:09:26.099Z,73.93
2016-03-05T09:10:26.116Z,73.84
2016-03-05T09:11:26.104Z,74.41
2016-03-05T09:12:26.106Z,73.93
2016-03-05T09:13:26.109Z,74.12
2016-03-05T09:14:26.112Z,74.12
2016-03-05T09:15:26.115Z,74.03
2016-03-05T09:16:26.117Z,74.51
2016-03-05T09:17:26.120Z,75.07
2016-03-05T09:18:26.106Z,74.51
2016-03-05T09:19:26.109Z,73.93
2016-03-05T09:20:26.112Z,74.12
2016-03-05T09:21:26.115Z,74.88
2016-03-05T09:22:26.101Z,74.6
2016-03-05T09:23:26.136Z,75.17
2016-03-05T09:24:26.123Z,75.17
2016-03-05T09:25:26.109Z,75.17
2016-03-05T09:26:26.112Z,74.79
2016-03-05T09:27:26.103Z,74.03
2016-03-05T09:28:26.091Z,73.65
2016-03-05T09:29:26.064Z,73.93
2016-03-05T09:30:26.068Z,73.55
2016-03-05T09:31:26.056Z,74.79
2016-03-05T09:32:26.053Z,75.26
2016-03-05T09:33:26.035Z,75.17
2016-03-05T09:34:26.033Z,74.88
2016-03-05T09:35:26.031Z,75.36
2016-03-05T09:36:26.029Z,74.22
2016-03-05T09:37:26.029Z,73.93
2016-03-05T09:38:26.030Z,73.93
2016-03-05T09:39:26.031Z,74.12
2016-03-05T09:40:26.015Z,73.74
2016-03-05T09:41:26.016Z,73.74
2016-03-05T09:42:26.018Z,72.32
2016-03-05T09:43:26.021Z,73.27
2016-03-05T09:44:26.007Z,72.99
2016-03-05T09:45:26.009Z,73.27
2016-03-05T09:46:26.012Z,72.13
2016-03-05T09:47:26.014Z,72.6
2016-03-05T09:48:26.016Z,72.13
2016-03-05T09:49:26.018Z,72.7
2016-03-05T09:50:26.020Z,72.51
2016-03-05T09:51:26.023Z,72.7
2016-03-05T09:52:26.011Z,72.99
2016-03-05T09:53:26.013Z,73.46
2016-03-05T09:54:26.016Z,72.6
2016-03-05T09:55:26.019Z,72.03
2016-03-05T09:56:26.006Z,72.13
2016-03-05T09:57:26.024Z,72.13
2016-03-05T09:58:26.011Z,71.31
2016-03-05T09:59:26.030Z,70.93
2016-03-05T10:00:26.017Z,70.93
2016-03-05T10:01:26.019Z,71.12
2016-03-05T10:02:26.021Z,72.07
2016-03-05T10:03:26.024Z,71.59
2016-03-05T10:04:26.027Z,71.31
2016-03-05T10:05:26.015Z,70.93
2016-03-05T10:06:26.018Z,69.98
2016-03-05T10:07:26.035Z,70.83
2016-03-05T10:08:26.023Z,72.07
2016-03-05T10:09:26.040Z,72.16
2016-03-05T10:10:26.028Z,71.5
2016-03-05T10:11:26.030Z,71.12
2016-03-05T10:12:26.034Z,70.54
2016-03-05T10:13:26.020Z,71.02
2016-03-05T10:14:26.039Z,71.12
2016-03-05T10:15:26.026Z,71.22
2016-03-05T10:16:26.045Z,70.83
2016-03-05T10:17:26.031Z,70.54
2016-03-05T10:18:26.033Z,69.98
2016-03-05T10:19:26.020Z,70.36
2016-03-05T10:20:26.039Z,71.12
2016-03-05T10:21:26.026Z,70.54
2016-03-05T10:22:26.045Z,70.36
2016-03-05T10:23:26.031Z,70.07
2016-03-05T10:24:26.034Z,69.41
2016-03-05T10:25:26.036Z,70.07
2016-03-05T10:26:26.039Z,70.93
2016-03-05T10:27:26.042Z,71.69
2016-03-05T10:28:26.045Z,70.64
2016-03-05T10:29:26.048Z,70.83
2016-03-05T10:30:26.035Z,70.64
2016-03-05T10:31:26.053Z,70.83
2016-03-05T10:32:26.071Z,70.17
2016-03-05T10:33:26.043Z,70.54
2016-03-05T10:34:26.045Z,70.64
2016-03-05T10:35:26.048Z,70.64
2016-03-05T10:36:26.051Z,70.83
2016-03-05T10:37:26.054Z,71.31
2016-03-05T10:38:26.057Z,71.22
2016-03-05T10:39:26.059Z,70.36
2016-03-05T10:40:26.062Z,70.26
2016-03-05T10:41:26.048Z,70.07
2016-03-05T10:42:26.051Z,70.17
2016-03-05T10:43:26.053Z,69.02
2016-03-05T10:44:26.057Z,70.17
2016-03-05T10:45:26.060Z,70.07
2016-03-05T10:46:26.046Z,70.54
2016-03-05T10:47:26.049Z,70.54
2016-03-05T10:48:26.051Z,70.64
2016-03-05T10:49:26.054Z,70.64
2016-03-05T10:50:26.057Z,70.64
2016-03-05T10:51:26.060Z,69.02
2016-03-05T10:52:26.062Z,70.26
2016-03-05T10:53:26.065Z,69.41
2016-03-05T10:54:26.084Z,69.6
2016-03-05T10:55:26.070Z,70.26
2016-03-05T10:56:26.073Z,70.64
2016-03-05T10:57:26.060Z,70.83
2016-03-05T10:58:26.079Z,70.54
2016-03-05T10:59:26.065Z,70.26
2016-03-05T11:00:26.084Z,70.83
2016-03-05T11:01:26.071Z,71.59
2016-03-05T11:02:26.074Z,70.83
2016-03-05T11:03:26.076Z,70.74
2016-03-05T11:04:26.063Z,71.06
2016-03-05T11:05:26.097Z,70.87
2016-03-05T11:06:26.069Z,71.15
2016-03-05T11:07:26.087Z,70.87
2016-03-05T11:08:26.075Z,70.1
2016-03-05T11:09:26.077Z,69.02
2016-03-05T11:10:26.079Z,69.88
2016-03-05T11:11:26.082Z,70.26
2016-03-05T11:12:26.084Z,70.26
2016-03-05T11:13:26.088Z,69.69
2016-03-05T11:14:26.090Z,70.07
2016-03-05T11:15:26.124Z,70.45
2016-03-05T11:16:26.081Z,70.45
2016-03-05T11:17:26.098Z,70.07
2016-03-05T11:18:26.086Z,69.69
2016-03-05T11:19:26.088Z,70.36
2016-03-05T11:20:26.106Z,70.74
2016-03-05T11:21:26.095Z,70.93
2016-03-05T11:22:26.097Z,70.93
2016-03-05T11:23:26.100Z,71.31
2016-03-05T11:24:26.086Z,71.69
2016-03-05T11:25:26.136Z,71.59
2016-03-05T11:26:26.107Z,71.59
2016-03-05T11:27:26.094Z,71.31
2016-03-05T11:28:26.096Z,70.58
2016-03-05T11:29:26.099Z,70.58
2016-03-05T11:30:26.119Z,70.36
2016-03-05T11:31:26.105Z,70.83
2016-03-05T11:32:26.124Z,71.59
2016-03-05T11:33:26.094Z,71.88
2016-03-05T11:34:26.113Z,72.07
2016-03-05T11:35:26.099Z,72.45
2016-03-05T11:36:26.102Z,72.16
2016-03-05T11:37:26.106Z,72.45
2016-03-05T11:38:26.108Z,72.26
2016-03-05T11:39:26.111Z,72.26
2016-03-05T11:40:26.113Z,71.78
2016-03-05T11:41:26.116Z,72.26
2016-03-05T11:42:26.118Z,73.49
2016-03-05T11:43:26.121Z,73.02
2016-03-05T11:44:26.140Z,72.64
2016-03-05T11:45:26.112Z,72.16
2016-03-05T11:46:26.130Z,72.13
2016-03-05T11:47:26.117Z,72.89
2016-03-05T11:48:26.135Z,73.27
2016-03-05T11:49:26.122Z,73.55
2016-03-05T11:50:26.110Z,73.36
2016-03-05T11:51:26.111Z,73.74
2016-03-05T11:52:26.131Z,73.84
2016-03-05T11:53:26.133Z,75.26
2016-03-05T11:54:26.120Z,73.65
2016-03-05T11:55:26.122Z,73.93
2016-03-05T11:56:26.125Z,74.31
2016-03-05T11:57:26.128Z,73.84
2016-03-05T11:58:26.114Z,74.22
2016-03-05T11:59:26.150Z,75.07
2016-03-05T12:00:26.120Z,74.31
2016-03-05T12:01:26.123Z,73.84
2016-03-05T12:02:26.125Z,74.22
2016-03-05T12:03:26.128Z,73.65
2016-03-05T12:04:25.381Z,73.74
2016-03-05T12:05:26.118Z,73.93
2016-03-05T12:06:26.122Z,73.74
2016-03-05T12:07:26.155Z,74.41
2016-03-05T12:08:26.142Z,74.6
2016-03-05T12:09:26.130Z,74.31
2016-03-05T12:10:26.132Z,73.93
2016-03-05T12:11:25.368Z,74.6
2016-03-05T12:12:26.137Z,75.26
2016-03-05T12:13:26.124Z,74.79
2016-03-05T12:14:26.142Z,74.51
2016-03-05T12:15:26.130Z,75.36
2016-03-05T12:16:26.132Z,75.74
2016-03-05T12:17:26.135Z,75.93
2016-03-05T12:18:26.137Z,75.74
2016-03-05T12:19:26.140Z,75.07
2016-03-05T12:20:26.128Z,74.88
2016-03-05T12:21:26.130Z,74.88
2016-03-05T12:22:26.118Z,75.55
2016-03-05T12:23:26.136Z,76.03
2016-03-05T12:24:26.123Z,74.98
2016-03-05T12:25:26.142Z,75.45
2016-03-05T12:26:26.128Z,76.03
2016-03-05T12:27:26.130Z,75.55
2016-03-05T12:28:26.133Z,76.12
2016-03-05T12:29:26.120Z,76.31
2016-03-05T12:30:26.139Z,75.93
2016-03-05T12:31:26.126Z,75.55
2016-03-05T12:32:26.128Z,75.93
2016-03-05T12:33:26.131Z,75.84
2016-03-05T12:34:26.133Z,76.31
2016-03-05T12:35:26.121Z,76.4
2016-03-05T12:36:26.124Z,76.03
2016-03-05T12:37:26.126Z,76.4
2016-03-05T12:38:26.130Z,75.74
2016-03-05T12:39:26.116Z,74.31
2016-03-05T12:40:26.135Z,74.12
2016-03-05T12:41:26.121Z,73.08
2016-03-05T12:42:25.374Z,71.46
2016-03-05T12:43:26.127Z,72.13
2016-03-05T12:44:26.129Z,73.08
2016-03-05T12:45:26.116Z,72.89
2016-03-05T12:46:26.151Z,72.6
2016-03-05T12:47:26.122Z,72.79
2016-03-05T12:48:26.140Z,72.22
2016-03-05T12:49:26.112Z,72.22
2016-03-05T12:50:26.129Z,72.99
2016-03-05T12:51:26.008Z,72.7
2016-03-05T12:52:26.120Z,73.23
2016-03-05T12:53:26.122Z,72.38
2016-03-05T12:54:26.126Z,73.27